createdAt,value
2023-01-22T00:02:27.469Z,16.66
2023-01-22T00:12:34.332Z,16.66
2023-01-22T00:22:41.384Z,16.66
2023-01-22T00:32:48.033Z,16.66
2023-01-22T00:42:54.886Z,16.66
2023-01-22T00:53:01.995Z,16.66
2023-01-22T01:03:09.063Z,16.69
2023-01-22T01:13:16.152Z,16.70
2023-01-22T01:23:23.712Z,16.69
2023-01-22T01:33:30.711Z,16.71
2023-01-22T01:43:37.409Z,16.69
2023-01-22T01:53:44.473Z,16.69
2023-01-22T02:03:52.018Z,16.71
2023-01-22T02:13:58.904Z,16.71
2023-01-22T02:24:05.897Z,16.71
2023-01-22T02:34:12.919Z,16.69
2023-01-22T02:44:19.718Z,16.69
2023-01-22T02:54:26.603Z,16.71
2023-01-22T03:04:33.682Z,16.70
2023-01-22T03:14:40.908Z,16.68
2023-01-22T03:24:47.890Z,16.73
2023-01-22T03:34:54.978Z,16.71
2023-01-22T03:45:02.030Z,16.71
2023-01-22T03:55:09.312Z,16.68
2023-01-22T04:05:16.462Z,16.71
2023-01-22T04:15:23.166Z,16.71
2023-01-22T04:25:30.211Z,16.68
2023-01-22T04:35:36.885Z,16.68
2023-01-22T04:45:44.286Z,16.73
2023-01-22T04:55:51.557Z,16.71
2023-01-22T05:05:58.459Z,16.71
2023-01-22T05:16:05.720Z,16.69
2023-01-22T05:26:12.141Z,16.69
2023-01-22T05:36:19.562Z,16.71
2023-01-22T05:46:27.085Z,16.73
2023-01-22T05:56:34.490Z,16.66
2023-01-22T06:06:41.768Z,16.70
2023-01-22T06:16:48.704Z,16.70
2023-01-22T06:26:55.572Z,16.70
2023-01-22T06:37:02.711Z,16.69
2023-01-22T06:47:09.712Z,16.66
2023-01-22T06:57:16.641Z,16.64
2023-01-22T07:07:23.953Z,16.63
2023-01-22T07:17:31.118Z,16.61
2023-01-22T07:27:38.025Z,16.61
2023-01-22T07:37:44.879Z,16.63
2023-01-22T07:47:52.040Z,16.62
2023-01-22T07:57:59.413Z,16.62
2023-01-22T08:08:06.867Z,16.59
2023-01-22T08:18:14.131Z,16.61
2023-01-22T08:28:21.410Z,16.59
2023-01-22T08:38:28.055Z,16.62
2023-01-22T08:48:35.322Z,16.61
2023-01-22T08:58:42.399Z,16.59
2023-01-22T09:08:49.434Z,16.59
2023-01-22T09:18:56.451Z,16.61
2023-01-22T09:29:03.725Z,16.57
2023-01-22T09:39:10.546Z,16.57
2023-01-22T09:49:17.655Z,16.66
2023-01-22T09:59:24.749Z,16.71
2023-01-22T10:09:31.565Z,16.75
2023-01-22T10:19:38.977Z,16.75
2023-01-22T10:29:45.889Z,16.78
2023-01-22T10:39:52.661Z,16.78
2023-01-22T10:49:59.742Z,16.84
2023-01-22T11:00:06.686Z,16.86
2023-01-22T11:10:14.130Z,16.76
2023-01-22T11:20:21.443Z,16.76
2023-01-22T11:30:29.709Z,16.95
2023-01-22T11:40:37.318Z,16.95
2023-01-22T11:50:50.034Z,17.02
2023-01-22T12:00:56.376Z,17.04
2023-01-22T12:11:02.999Z,17.06
2023-01-22T12:21:10.541Z,17.06
2023-01-22T12:31:17.250Z,17.06
2023-01-22T12:41:23.245Z,17.04
2023-01-22T12:51:30.139Z,17.02
2023-01-22T13:01:37.307Z,16.98
2023-01-22T13:11:44.422Z,16.95
2023-01-22T13:21:51.500Z,16.93
2023-01-22T13:31:58.545Z,16.92
2023-01-22T13:42:05.521Z,16.91
2023-01-22T13:52:12.946Z,16.90
2023-01-22T14:02:20.514Z,16.86
2023-01-22T14:12:27.946Z,16.83
2023-01-22T14:22:34.609Z,16.84
2023-01-22T14:32:41.766Z,16.84
2023-01-22T14:42:48.041Z,16.84
2023-01-22T14:52:55.156Z,16.83
2023-01-22T15:03:01.820Z,16.80
2023-01-22T15:13:09.150Z,16.78
2023-01-22T15:23:15.876Z,16.78
2023-01-22T15:33:23.034Z,16.77
2023-01-22T15:43:30.178Z,16.77
2023-01-22T15:53:37.214Z,16.77
2023-01-22T16:03:44.298Z,16.77
2023-01-22T16:13:51.365Z,16.75
2023-01-22T16:23:58.418Z,16.76
2023-01-22T16:34:05.040Z,16.77
2023-01-22T16:44:12.307Z,16.75
2023-01-22T16:54:19.590Z,16.73
2023-01-22T17:04:26.233Z,16.73
2023-01-22T17:14:33.105Z,16.75
2023-01-22T17:24:39.839Z,16.75
2023-01-22T17:34:46.643Z,16.75
2023-01-22T17:44:53.613Z,16.76
2023-01-22T17:55:00.324Z,16.73
2023-01-22T18:05:08.091Z,16.75
2023-01-22T18:15:15.588Z,16.75
2023-01-22T18:25:23.144Z,16.73
2023-01-22T18:35:30.024Z,16.70
2023-01-22T18:45:37.265Z,16.69
2023-01-22T18:55:44.058Z,16.69
2023-01-22T19:05:51.204Z,16.68
2023-01-22T19:15:58.029Z,16.66
2023-01-22T19:26:05.115Z,16.64
2023-01-22T19:36:12.120Z,16.68
2023-01-22T19:46:19.112Z,16.69
2023-01-22T19:56:26.341Z,16.66
2023-01-22T20:06:33.435Z,16.68
2023-01-22T20:16:40.625Z,16.68
2023-01-22T20:26:47.334Z,16.68
2023-01-22T20:36:54.446Z,16.69
2023-01-22T20:47:01.690Z,16.68
2023-01-22T20:57:08.416Z,16.68
2023-01-22T21:07:15.926Z,16.70
2023-01-22T21:17:22.391Z,16.66
2023-01-22T21:27:29.726Z,16.66
2023-01-22T21:37:36.606Z,16.66
2023-01-22T21:47:43.847Z,16.66
2023-01-22T21:57:50.579Z,16.66
2023-01-22T22:07:57.825Z,16.68
2023-01-22T22:18:05.054Z,16.70
2023-01-22T22:28:11.864Z,16.69
2023-01-22T22:38:19.046Z,16.70
2023-01-22T22:48:25.822Z,16.70
2023-01-22T22:58:32.704Z,16.66
2023-01-22T23:08:40.287Z,16.70
2023-01-22T23:18:47.154Z,16.70
2023-01-22T23:28:53.959Z,16.71
2023-01-22T23:39:01.116Z,16.71
2023-01-22T23:49:08.226Z,16.70
2023-01-22T23:59:15.313Z,16.70
